createdAt,value
2022-09-17T00:01:03.190Z,1.85
2022-09-17T00:03:30.395Z,2.00
2022-09-17T00:06:08.923Z,1.50
2022-09-17T00:08:38.132Z,1.85
2022-09-17T00:11:10.036Z,1.90
2022-09-17T00:13:37.544Z,1.85
2022-09-17T00:16:04.886Z,2.30
2022-09-17T00:18:31.825Z,2.28
2022-09-17T00:20:59.366Z,2.50
2022-09-17T00:23:26.254Z,2.22
2022-09-17T00:25:53.055Z,2.22
2022-09-17T00:28:19.898Z,2.22
2022-09-17T00:30:46.945Z,2.72
2022-09-17T00:33:16.138Z,1.92
2022-09-17T00:35:44.253Z,2.67
2022-09-17T00:38:11.777Z,2.70
2022-09-17T00:40:39.216Z,2.75
2022-09-17T00:43:12.332Z,2.97
2022-09-17T00:45:40.030Z,2.40
2022-09-17T00:48:07.649Z,2.92
2022-09-17T00:50:39.718Z,2.38
2022-09-17T00:53:11.108Z,2.30
2022-09-17T00:55:53.699Z,2.35
2022-09-17T00:58:22.756Z,2.05
2022-09-17T01:00:49.795Z,2.47
2022-09-17T01:03:16.762Z,2.30
2022-09-17T01:06:05.764Z,2.08
2022-09-17T01:09:03.460Z,2.03
2022-09-17T01:12:12.474Z,1.77
2022-09-17T01:15:00.789Z,2.15
2022-09-17T01:17:40.243Z,2.20
2022-09-17T01:20:25.720Z,2.30
2022-09-17T01:23:14.239Z,2.10
2022-09-17T01:26:02.582Z,1.90
2022-09-17T01:29:02.932Z,2.33
2022-09-17T01:31:51.740Z,2.08
2022-09-17T01:34:56.560Z,2.45
2022-09-17T01:37:42.084Z,2.58
2022-09-17T01:40:25.112Z,2.30
2022-09-17T01:43:08.244Z,2.45
2022-09-17T01:45:56.878Z,2.60
2022-09-17T01:48:29.708Z,3.25
2022-09-17T01:51:06.838Z,3.10
2022-09-17T01:53:53.148Z,3.13
2022-09-17T01:56:25.199Z,3.05
2022-09-17T01:59:01.423Z,3.10
2022-09-17T02:01:32.196Z,3.40
2022-09-17T02:04:11.689Z,3.33
2022-09-17T02:06:44.638Z,2.90
2022-09-17T02:09:15.521Z,2.80
2022-09-17T02:11:46.475Z,2.95
2022-09-17T02:14:20.049Z,2.78
2022-09-17T02:16:55.647Z,2.78
2022-09-17T02:19:29.487Z,2.53
2022-09-17T02:22:20.580Z,2.30
2022-09-17T02:25:00.182Z,2.80
2022-09-17T02:27:54.160Z,2.30
2022-09-17T02:30:20.999Z,2.45
2022-09-17T02:32:48.532Z,2.13
2022-09-17T02:35:15.945Z,2.40
2022-09-17T02:37:44.438Z,2.22
2022-09-17T02:40:13.785Z,2.40
2022-09-17T02:43:03.140Z,2.50
2022-09-17T02:45:48.202Z,1.83
2022-09-17T02:48:21.249Z,1.95
2022-09-17T02:50:48.012Z,2.20
2022-09-17T02:53:41.386Z,2.17
2022-09-17T02:56:16.244Z,1.83
2022-09-17T02:59:05.260Z,1.92
2022-09-17T03:01:32.091Z,1.75
2022-09-17T03:04:01.848Z,1.95
2022-09-17T03:06:29.893Z,2.00
2022-09-17T03:08:57.454Z,2.17
2022-09-17T03:11:25.024Z,2.95
2022-09-17T03:13:52.168Z,4.07
2022-09-17T03:16:19.213Z,3.25
2022-09-17T03:18:46.046Z,4.13
2022-09-17T03:21:12.995Z,4.30
2022-09-17T03:23:40.092Z,4.60
2022-09-17T03:26:07.318Z,4.10
2022-09-17T03:28:34.240Z,4.63
2022-09-17T03:31:01.812Z,4.22
2022-09-17T03:33:28.884Z,4.00
2022-09-17T03:35:55.717Z,4.28
2022-09-17T03:38:22.532Z,4.40
2022-09-17T03:41:07.676Z,4.57
2022-09-17T03:43:34.661Z,4.35
2022-09-17T03:46:01.791Z,4.05
2022-09-17T03:48:29.703Z,4.60
2022-09-17T03:50:56.918Z,5.85
2022-09-17T03:53:24.192Z,6.03
2022-09-17T03:55:51.066Z,5.10
2022-09-17T03:58:17.960Z,5.55
2022-09-17T04:00:45.002Z,5.20
2022-09-17T04:03:11.829Z,5.55
2022-09-17T04:05:38.808Z,6.13
2022-09-17T04:08:05.762Z,5.78
2022-09-17T04:10:32.627Z,4.80
2022-09-17T04:12:59.730Z,5.40
2022-09-17T04:15:26.692Z,5.00
2022-09-17T04:18:00.322Z,3.90
2022-09-17T04:20:27.658Z,5.10
2022-09-17T04:22:54.822Z,5.47
2022-09-17T04:25:21.768Z,4.97
2022-09-17T04:27:48.599Z,5.10
2022-09-17T04:30:15.718Z,5.70
2022-09-17T04:32:44.516Z,5.35
2022-09-17T04:35:27.175Z,5.43
2022-09-17T04:37:55.666Z,4.85
2022-09-17T04:40:24.208Z,5.78
2022-09-17T04:43:03.069Z,5.70
2022-09-17T04:45:33.449Z,6.05
2022-09-17T04:48:01.924Z,5.38
2022-09-17T04:50:29.079Z,5.78
2022-09-17T04:52:56.004Z,5.78
2022-09-17T04:55:22.929Z,5.88
2022-09-17T04:57:52.111Z,6.25
2022-09-17T05:00:21.089Z,8.85
2022-09-17T05:02:50.296Z,9.70
2022-09-17T05:05:18.973Z,9.00
2022-09-17T05:07:46.294Z,8.60
2022-09-17T05:10:15.638Z,8.15
2022-09-17T05:12:51.034Z,7.63
2022-09-17T05:15:18.016Z,7.87
2022-09-17T05:17:45.302Z,6.78
2022-09-17T05:20:13.315Z,6.45
2022-09-17T05:22:45.106Z,5.88
2022-09-17T05:25:14.131Z,5.80
2022-09-17T05:27:41.570Z,6.05
2022-09-17T05:30:10.656Z,5.28
2022-09-17T05:32:37.910Z,4.85
2022-09-17T05:35:06.152Z,5.20
2022-09-17T05:37:33.333Z,5.00
2022-09-17T05:40:00.800Z,6.32
2022-09-17T05:42:27.984Z,4.57
2022-09-17T05:44:54.873Z,5.13
2022-09-17T05:47:21.727Z,4.78
2022-09-17T05:49:48.582Z,3.97
2022-09-17T05:52:16.472Z,4.20
2022-09-17T05:54:43.428Z,4.10
2022-09-17T05:57:10.387Z,3.88
2022-09-17T05:59:37.493Z,4.38
2022-09-17T06:02:05.509Z,4.10
2022-09-17T06:04:34.881Z,4.13
2022-09-17T06:07:07.601Z,4.13
2022-09-17T06:09:37.833Z,3.85
2022-09-17T06:12:05.871Z,5.60
2022-09-17T06:14:32.904Z,3.55
2022-09-17T06:17:00.407Z,3.28
2022-09-17T06:19:27.963Z,3.30
2022-09-17T06:21:55.281Z,3.00
2022-09-17T06:24:22.426Z,3.22
2022-09-17T06:26:49.621Z,2.50
2022-09-17T06:29:16.770Z,2.80
2022-09-17T06:31:47.009Z,2.40
2022-09-17T06:34:16.342Z,2.53
2022-09-17T06:36:43.897Z,2.50
2022-09-17T06:39:11.929Z,2.72
2022-09-17T06:41:39.278Z,2.50
2022-09-17T06:44:06.667Z,2.60
2022-09-17T06:46:33.840Z,2.30
2022-09-17T06:49:00.952Z,2.70
2022-09-17T06:51:28.107Z,2.70
2022-09-17T06:53:55.856Z,2.88
2022-09-17T06:56:23.057Z,2.75
2022-09-17T06:58:50.225Z,2.55
2022-09-17T07:01:17.167Z,3.15
2022-09-17T07:03:44.213Z,2.47
2022-09-17T07:06:12.839Z,2.42
2022-09-17T07:08:40.085Z,2.33
2022-09-17T07:11:08.216Z,2.15
2022-09-17T07:13:35.556Z,2.10
2022-09-17T07:16:05.092Z,2.45
2022-09-17T07:18:32.196Z,2.80
2022-09-17T07:21:01.512Z,2.65
2022-09-17T07:23:33.885Z,2.30
2022-09-17T07:26:07.090Z,2.22
2022-09-17T07:28:34.316Z,2.15
2022-09-17T07:31:05.740Z,2.38
2022-09-17T07:33:34.153Z,1.70
2022-09-17T07:36:06.831Z,1.73
2022-09-17T07:38:35.614Z,1.75
2022-09-17T07:41:14.367Z,1.52
2022-09-17T07:43:42.283Z,1.48
2022-09-17T07:46:17.964Z,1.35
2022-09-17T07:48:46.887Z,1.63
2022-09-17T07:51:19.735Z,1.20
2022-09-17T07:53:48.065Z,1.30
2022-09-17T07:56:15.212Z,1.40
2022-09-17T07:58:42.659Z,1.08
2022-09-17T08:01:16.235Z,1.13
2022-09-17T08:03:47.607Z,1.15
2022-09-17T08:06:16.508Z,1.00
2022-09-17T08:08:43.480Z,1.00
2022-09-17T08:11:38.067Z,1.00
2022-09-17T08:14:06.656Z,0.90
2022-09-17T08:16:33.545Z,0.80
2022-09-17T08:19:00.439Z,0.88
2022-09-17T08:21:27.427Z,0.98
2022-09-17T08:23:54.410Z,1.00
2022-09-17T08:26:23.070Z,0.90
2022-09-17T08:28:52.293Z,1.15
2022-09-17T08:31:20.157Z,2.78
2022-09-17T08:33:47.812Z,1.23
2022-09-17T08:36:17.188Z,1.17
2022-09-17T08:38:45.266Z,1.00
2022-09-17T08:41:24.257Z,0.90
2022-09-17T08:44:15.517Z,0.90
2022-09-17T08:46:46.687Z,1.08
2022-09-17T08:49:41.821Z,1.10
2022-09-17T08:52:30.224Z,0.93
2022-09-17T08:54:57.369Z,0.98
2022-09-17T08:57:42.982Z,0.85
2022-09-17T09:00:18.912Z,0.80
2022-09-17T09:03:16.943Z,0.90
2022-09-17T09:05:49.392Z,1.10
2022-09-17T09:08:37.449Z,1.10
2022-09-17T09:11:22.361Z,0.98
2022-09-17T09:13:55.549Z,0.80
2022-09-17T09:16:28.952Z,0.93
2022-09-17T09:18:59.833Z,0.95
2022-09-17T09:21:29.406Z,1.00
2022-09-17T09:24:26.481Z,0.98
2022-09-17T09:27:13.476Z,1.10
2022-09-17T09:29:48.861Z,1.40
2022-09-17T09:32:16.883Z,1.00
2022-09-17T09:34:45.998Z,1.10
2022-09-17T09:37:19.996Z,1.02
2022-09-17T09:39:50.355Z,0.85
2022-09-17T09:42:31.659Z,0.80
2022-09-17T09:45:12.217Z,1.20
2022-09-17T09:47:53.297Z,0.90
2022-09-17T09:50:48.736Z,1.23
2022-09-17T09:53:27.025Z,0.88
2022-09-17T09:56:12.317Z,1.10
2022-09-17T09:58:41.288Z,0.90
2022-09-17T10:01:17.257Z,1.08
2022-09-17T10:03:46.333Z,1.20
2022-09-17T10:06:14.954Z,1.10
2022-09-17T10:08:51.407Z,1.08
2022-09-17T10:11:22.967Z,1.00
2022-09-17T10:13:50.357Z,0.90
2022-09-17T10:16:20.672Z,0.90
2022-09-17T10:18:49.161Z,0.90
2022-09-17T10:21:21.938Z,1.00
2022-09-17T10:23:50.781Z,1.38
2022-09-17T10:26:31.649Z,1.33
2022-09-17T10:29:03.529Z,1.80
2022-09-17T10:31:51.846Z,1.63
2022-09-17T10:34:30.360Z,1.98
2022-09-17T10:36:57.368Z,1.58
2022-09-17T10:39:26.923Z,1.67
2022-09-17T10:42:05.358Z,1.63
2022-09-17T10:44:39.702Z,1.95
2022-09-17T10:47:18.673Z,1.50
2022-09-17T10:49:55.518Z,1.65
2022-09-17T10:52:31.580Z,1.70
2022-09-17T10:55:20.784Z,1.20
2022-09-17T10:58:09.348Z,1.50
2022-09-17T11:01:19.357Z,1.13
2022-09-17T11:04:02.764Z,1.20
2022-09-17T11:06:38.671Z,1.30
2022-09-17T11:09:32.524Z,1.50
2022-09-17T11:12:23.086Z,1.45
2022-09-17T11:15:17.977Z,1.27
2022-09-17T11:17:56.703Z,1.20
2022-09-17T11:20:40.656Z,1.20
2022-09-17T11:23:16.743Z,1.05
2022-09-17T11:26:27.493Z,1.20
2022-09-17T11:29:20.856Z,0.90
2022-09-17T11:32:13.814Z,1.15
2022-09-17T11:35:01.535Z,1.10
2022-09-17T11:37:43.599Z,0.98
2022-09-17T11:41:01.936Z,1.15
2022-09-17T11:44:14.910Z,0.80
2022-09-17T11:47:00.564Z,0.98
2022-09-17T11:49:46.790Z,1.00
2022-09-17T11:52:37.903Z,1.10
2022-09-17T11:55:42.808Z,1.08
2022-09-17T11:58:50.010Z,1.33
2022-09-17T12:01:31.750Z,1.30
2022-09-17T12:04:49.230Z,1.17
2022-09-17T12:07:34.066Z,1.20
2022-09-17T12:10:19.437Z,1.48
2022-09-17T12:13:17.316Z,1.20
2022-09-17T12:15:53.074Z,1.40
2022-09-17T12:18:32.738Z,1.38
2022-09-17T12:21:03.243Z,1.55
2022-09-17T12:23:49.593Z,1.27
2022-09-17T12:26:35.452Z,1.30
2022-09-17T12:29:21.746Z,1.00
2022-09-17T12:32:15.186Z,1.38
2022-09-17T12:35:12.442Z,1.00
2022-09-17T12:43:02.650Z,1.58
2022-09-17T12:45:58.287Z,1.00
2022-09-17T12:48:48.281Z,1.00
2022-09-17T12:51:43.896Z,0.80
2022-09-17T12:54:41.794Z,0.82
2022-09-17T12:57:11.491Z,1.05
2022-09-17T12:59:54.489Z,1.10
2022-09-17T13:02:30.467Z,1.10
2022-09-17T13:05:36.116Z,1.20
2022-09-17T13:08:09.622Z,1.05
2022-09-17T13:10:54.624Z,1.40
2022-09-17T13:13:27.583Z,1.52
2022-09-17T13:16:20.120Z,1.00
2022-09-17T13:19:16.366Z,1.10
2022-09-17T13:21:47.461Z,1.30
2022-09-17T13:24:25.588Z,1.10
2022-09-17T13:26:54.579Z,1.10
2022-09-17T13:29:46.614Z,1.00
2022-09-17T13:32:32.971Z,1.27
2022-09-17T13:35:18.616Z,1.23
2022-09-17T13:37:59.827Z,1.33
2022-09-17T13:40:31.908Z,1.10
2022-09-17T13:43:05.950Z,1.10
2022-09-17T13:45:33.997Z,0.90
2022-09-17T13:48:09.569Z,1.10
2022-09-17T13:50:42.492Z,1.00
2022-09-17T13:53:22.351Z,1.00
2022-09-17T13:56:01.292Z,1.10
2022-09-17T13:58:34.034Z,1.08
2022-09-17T14:01:13.954Z,1.20
2022-09-17T14:03:42.020Z,1.30
2022-09-17T14:06:09.453Z,1.30
2022-09-17T14:08:45.706Z,1.42
2022-09-17T14:13:53.588Z,1.65
2022-09-17T14:16:38.054Z,1.10
2022-09-17T14:19:22.517Z,1.42
2022-09-17T14:22:12.898Z,1.05
2022-09-17T14:24:42.848Z,1.33
2022-09-17T14:27:19.437Z,1.10
2022-09-17T14:29:55.319Z,1.30
2022-09-17T14:32:42.334Z,1.27
2022-09-17T14:35:20.424Z,1.42
2022-09-17T14:38:13.258Z,1.50
2022-09-17T14:40:46.185Z,1.67
2022-09-17T14:43:27.806Z,1.35
2022-09-17T14:45:55.579Z,1.10
2022-09-17T14:48:34.601Z,1.80
2022-09-17T14:51:19.970Z,1.52
2022-09-17T14:53:48.499Z,1.30
2022-09-17T14:56:18.589Z,1.50
2022-09-17T14:58:55.051Z,1.77
2022-09-17T15:01:27.295Z,1.20
2022-09-17T15:04:13.410Z,1.38
2022-09-17T15:06:41.636Z,1.70
2022-09-17T15:09:19.139Z,1.45
2022-09-17T15:11:48.254Z,1.48
2022-09-17T15:14:34.656Z,1.45
2022-09-17T15:17:04.324Z,1.90
2022-09-17T15:19:38.560Z,1.95
2022-09-17T15:22:18.600Z,1.50
2022-09-17T15:24:59.879Z,2.00
2022-09-17T15:27:43.673Z,1.90
2022-09-17T15:30:15.151Z,2.00
2022-09-17T15:33:02.363Z,2.10
2022-09-17T15:35:31.964Z,1.92
2022-09-17T15:38:23.628Z,2.00
2022-09-17T15:40:51.787Z,2.45
2022-09-17T15:43:29.476Z,2.70
2022-09-17T15:45:58.514Z,2.35
2022-09-17T15:48:35.064Z,2.50
2022-09-17T15:51:04.384Z,2.10
2022-09-17T15:53:32.847Z,2.70
2022-09-17T15:56:05.986Z,2.20
2022-09-17T15:58:46.875Z,2.60
2022-09-17T16:01:17.597Z,2.58
2022-09-17T16:03:44.615Z,2.72
2022-09-17T16:06:33.307Z,2.58
2022-09-17T16:09:01.691Z,2.63
2022-09-17T16:11:31.579Z,2.25
2022-09-17T16:14:01.299Z,2.35
2022-09-17T16:16:28.399Z,2.60
2022-09-17T16:18:55.298Z,1.70
2022-09-17T16:21:22.903Z,2.25
2022-09-17T16:23:49.750Z,2.55
2022-09-17T16:26:23.510Z,2.08
2022-09-17T16:28:54.091Z,2.50
2022-09-17T16:31:21.388Z,2.20
2022-09-17T16:33:48.269Z,2.05
2022-09-17T16:36:18.875Z,2.47
2022-09-17T16:38:45.716Z,2.40
2022-09-17T16:41:12.877Z,2.45
2022-09-17T16:43:40.432Z,2.65
2022-09-17T16:46:10.857Z,2.08
2022-09-17T16:48:39.059Z,2.30
2022-09-17T16:51:10.889Z,2.88
2022-09-17T16:53:38.643Z,2.78
2022-09-17T16:56:09.911Z,2.97
2022-09-17T16:58:37.504Z,2.38
2022-09-17T17:01:08.568Z,2.63
2022-09-17T17:03:35.702Z,2.63
2022-09-17T17:06:04.063Z,2.88
2022-09-17T17:08:34.898Z,2.65
2022-09-17T17:11:02.130Z,3.03
2022-09-17T17:13:29.157Z,3.03
2022-09-17T17:15:57.735Z,2.40
2022-09-17T17:18:28.384Z,3.03
2022-09-17T17:20:55.477Z,2.50
2022-09-17T17:23:22.477Z,3.42
2022-09-17T17:25:50.213Z,3.60
2022-09-17T17:28:17.371Z,2.95
2022-09-17T17:30:48.653Z,3.35
2022-09-17T17:33:16.145Z,3.28
2022-09-17T17:35:43.315Z,3.17
2022-09-17T17:38:10.495Z,3.40
2022-09-17T17:40:37.518Z,3.20
2022-09-17T17:43:04.651Z,3.08
2022-09-17T17:45:31.462Z,3.20
2022-09-17T17:47:58.566Z,3.60
2022-09-17T17:50:25.520Z,3.60
2022-09-17T17:52:55.294Z,3.72
2022-09-17T17:55:22.251Z,4.03
2022-09-17T17:57:57.744Z,3.45
2022-09-17T18:00:28.332Z,3.67
2022-09-17T18:02:55.265Z,3.67
2022-09-17T18:05:22.523Z,3.85
2022-09-17T18:07:49.770Z,3.80
2022-09-17T18:10:17.045Z,4.07
2022-09-17T18:12:50.686Z,3.90
2022-09-17T18:15:18.159Z,4.43
2022-09-17T18:17:48.041Z,4.28
2022-09-17T18:20:15.637Z,3.92
2022-09-17T18:22:43.021Z,3.50
2022-09-17T18:25:10.398Z,3.92
2022-09-17T18:27:37.261Z,4.05
2022-09-17T18:30:04.462Z,3.80
2022-09-17T18:32:31.828Z,3.28
2022-09-17T18:34:58.681Z,3.90
2022-09-17T18:37:25.900Z,3.92
2022-09-17T18:39:58.396Z,3.60
2022-09-17T18:42:26.559Z,4.25
2022-09-17T18:44:53.569Z,4.10
2022-09-17T18:47:20.495Z,3.85
2022-09-17T18:49:47.354Z,3.40
2022-09-17T18:52:14.298Z,3.22
2022-09-17T18:54:41.423Z,3.80
2022-09-17T18:57:08.528Z,3.95
2022-09-17T18:59:35.710Z,3.38
2022-09-17T19:02:02.815Z,3.47
2022-09-17T19:04:29.924Z,3.60
2022-09-17T19:06:57.805Z,3.85
2022-09-17T19:09:24.945Z,3.28
2022-09-17T19:11:51.838Z,3.72
2022-09-17T19:14:18.723Z,3.67
2022-09-17T19:16:47.234Z,3.70
2022-09-17T19:19:14.788Z,3.72
2022-09-17T19:21:42.068Z,3.30
2022-09-17T19:24:09.585Z,3.65
2022-09-17T19:26:37.154Z,3.30
2022-09-17T19:29:04.749Z,3.65
2022-09-17T19:31:31.949Z,3.40
2022-09-17T19:34:00.348Z,3.63
2022-09-17T19:36:27.626Z,4.10
2022-09-17T19:38:55.523Z,3.22
2022-09-17T19:41:23.391Z,3.78
2022-09-17T19:43:52.517Z,3.83
2022-09-17T19:46:22.743Z,3.50
2022-09-17T19:48:54.839Z,3.28
2022-09-17T19:51:23.798Z,3.33
2022-09-17T19:53:51.314Z,3.30
2022-09-17T19:56:23.965Z,3.67
2022-09-17T19:58:51.204Z,3.30
2022-09-17T20:01:18.992Z,3.20
2022-09-17T20:03:47.044Z,3.30
2022-09-17T20:06:16.928Z,3.15
2022-09-17T20:08:48.883Z,2.70
2022-09-17T20:11:16.957Z,2.95
2022-09-17T20:13:44.473Z,2.85
2022-09-17T20:16:20.552Z,3.30
2022-09-17T20:18:48.600Z,3.13
2022-09-17T20:21:24.789Z,3.20
2022-09-17T20:28:46.812Z,3.47
2022-09-17T20:31:17.181Z,3.05
2022-09-17T20:33:45.116Z,3.45
2022-09-17T20:36:14.815Z,3.33
2022-09-17T20:39:11.598Z,3.30
2022-09-17T20:41:31.693Z,3.00
2022-09-17T20:43:59.094Z,2.70
2022-09-17T20:46:29.352Z,3.15
2022-09-17T20:48:58.139Z,3.15
2022-09-17T20:51:28.762Z,2.78
2022-09-17T20:53:57.442Z,2.97
2022-09-17T20:56:27.742Z,2.67
2022-09-17T20:59:08.242Z,3.38
2022-09-17T21:01:37.890Z,3.13
2022-09-17T21:04:07.649Z,3.53
2022-09-17T21:06:37.811Z,3.45
2022-09-17T21:09:06.312Z,2.95
2022-09-17T21:11:34.442Z,2.83
2022-09-17T21:14:01.814Z,2.85
2022-09-17T21:16:29.404Z,2.65
2022-09-17T21:18:58.362Z,3.10
2022-09-17T21:21:25.966Z,3.15
2022-09-17T21:23:53.010Z,2.22
2022-09-17T21:26:22.469Z,2.70
2022-09-17T21:28:51.146Z,2.42
2022-09-17T21:31:31.100Z,2.92
2022-09-17T21:34:01.821Z,2.47
2022-09-17T21:36:31.946Z,2.75
2022-09-17T21:39:02.021Z,3.03
2022-09-17T21:41:29.966Z,2.90
2022-09-17T21:43:56.918Z,2.95
2022-09-17T21:46:29.433Z,2.67
2022-09-17T21:49:02.678Z,2.38
2022-09-17T21:51:36.950Z,2.60
2022-09-17T21:54:09.660Z,2.55
2022-09-17T21:56:37.144Z,3.03
2022-09-17T21:59:07.067Z,2.60
2022-09-17T22:01:43.812Z,3.00
2022-09-17T22:04:15.961Z,3.03
2022-09-17T22:06:44.759Z,2.40
2022-09-17T22:09:20.961Z,2.50
2022-09-17T22:11:47.976Z,2.42
2022-09-17T22:14:19.427Z,2.70
2022-09-17T22:16:52.803Z,2.30
2022-09-17T22:19:20.794Z,2.33
2022-09-17T22:21:51.330Z,2.67
2022-09-17T22:24:19.962Z,2.83
2022-09-17T22:26:52.963Z,2.78
2022-09-17T22:29:24.683Z,2.63
2022-09-17T22:31:51.728Z,2.60
2022-09-17T22:34:23.435Z,2.70
2022-09-17T22:36:50.599Z,2.40
2022-09-17T22:39:20.217Z,2.40
2022-09-17T22:41:47.255Z,2.58
2022-09-17T22:44:17.766Z,2.78
2022-09-17T22:46:46.966Z,2.58
2022-09-17T22:49:14.817Z,2.67
2022-09-17T22:51:42.431Z,2.63
2022-09-17T22:54:14.761Z,3.33
2022-09-17T22:56:42.430Z,2.90
2022-09-17T22:59:09.571Z,3.00
2022-09-17T23:01:37.656Z,3.35
2022-09-17T23:04:05.562Z,3.20
2022-09-17T23:06:35.831Z,2.30
2022-09-17T23:09:03.286Z,2.95
2022-09-17T23:11:32.435Z,3.53
2022-09-17T23:14:02.376Z,3.65
2022-09-17T23:16:34.429Z,3.13
2022-09-17T23:19:01.307Z,2.90
2022-09-17T23:21:28.184Z,4.38
2022-09-17T23:23:55.011Z,3.10
2022-09-17T23:26:24.298Z,3.05
2022-09-17T23:28:51.739Z,2.90
2022-09-17T23:31:29.123Z,4.30
2022-09-17T23:33:56.957Z,4.10
2022-09-17T23:36:29.657Z,4.35
2022-09-17T23:38:57.821Z,4.38
2022-09-17T23:41:31.900Z,4.15
2022-09-17T23:44:01.127Z,4.18
2022-09-17T23:46:31.186Z,4.47
2022-09-17T23:48:58.755Z,4.70
2022-09-17T23:51:27.531Z,4.30
2022-09-17T23:53:54.741Z,4.20
2022-09-17T23:56:25.341Z,4.05
2022-09-17T23:58:54.339Z,4.85
